createdAt,value
2022-09-07T00:43:12.040Z,92.40
2022-09-07T01:56:23.838Z,93.40
2022-09-07T04:46:54.426Z,95.60
2022-09-07T04:59:02.571Z,95.70
2022-09-07T05:36:02.807Z,95.20
2022-09-07T05:48:04.294Z,95.30
2022-09-07T06:13:49.508Z,95.50
2022-09-07T06:37:39.649Z,95.70
2022-09-07T06:48:01.873Z,95.90
2022-09-07T07:13:38.047Z,92.70
2022-09-07T07:24:07.933Z,93.00
2022-09-07T07:26:51.673Z,92.70
2022-09-07T07:29:53.157Z,92.80
2022-09-07T07:33:07.219Z,93.40
2022-09-07T07:35:38.184Z,92.00
2022-09-07T07:43:29.709Z,90.80
2022-09-07T07:46:09.516Z,88.50
2022-09-07T07:48:58.763Z,88.90
2022-09-07T07:59:49.850Z,86.20
2022-09-07T08:02:34.327Z,86.30
2022-09-07T08:05:05.498Z,86.30
2022-09-07T08:08:23.078Z,84.30
2022-09-07T08:11:34.235Z,85.40
2022-09-07T08:18:07.125Z,80.20
2022-09-07T08:20:35.475Z,77.20
2022-09-07T08:23:37.560Z,77.40
2022-09-07T08:26:30.124Z,78.10
2022-09-07T08:29:16.075Z,76.60
2022-09-07T08:31:47.460Z,77.20
2022-09-07T08:34:46.906Z,78.50
2022-09-07T08:37:42.801Z,78.20
2022-09-07T08:40:22.436Z,79.10
2022-09-07T08:43:36.415Z,78.60
2022-09-07T08:46:46.976Z,77.40
2022-09-07T08:50:05.726Z,77.20
2022-09-07T08:52:51.225Z,78.10
2022-09-07T08:56:01.722Z,74.20
2022-09-07T09:05:27.865Z,72.70
2022-09-07T09:12:23.835Z,73.50
2022-09-07T09:15:09.703Z,73.60
2022-09-07T09:17:45.616Z,69.50
2022-09-07T09:20:47.481Z,70.00
2022-09-07T09:23:17.886Z,69.80
2022-09-07T09:26:06.259Z,70.60
2022-09-07T09:28:39.792Z,67.10
2022-09-07T09:31:38.427Z,63.40
2022-09-07T09:34:55.013Z,61.40
2022-09-07T09:37:42.409Z,62.00
2022-09-07T09:40:59.033Z,63.90
2022-09-07T09:48:32.140Z,64.80
2022-09-07T09:53:58.432Z,65.30
2022-09-07T09:56:57.219Z,65.40
2022-09-07T10:00:12.097Z,66.30
2022-09-07T10:06:40.047Z,63.20
2022-09-07T10:09:19.533Z,65.10
2022-09-07T10:12:09.820Z,64.70
2022-09-07T10:15:20.977Z,64.00
2022-09-07T10:21:46.650Z,66.10
2022-09-07T10:24:27.903Z,66.20
2022-09-07T10:28:06.192Z,66.80
2022-09-07T10:30:56.876Z,67.00
2022-09-07T10:36:45.806Z,65.60
2022-09-07T10:39:32.054Z,66.00
2022-09-07T10:46:56.283Z,64.40
2022-09-07T10:49:35.928Z,64.80
2022-09-07T10:52:52.312Z,63.10
2022-09-07T11:07:22.881Z,64.40
2022-09-07T11:10:32.233Z,65.20
2022-09-07T11:13:19.637Z,65.90
2022-09-07T11:19:41.945Z,65.20
2022-09-07T11:22:29.714Z,63.30
2022-09-07T11:30:00.523Z,64.20
2022-09-07T11:35:46.109Z,65.00
2022-09-07T11:39:00.051Z,60.00
2022-09-07T11:41:55.423Z,60.60
2022-09-07T11:48:30.972Z,61.70
2022-09-07T11:51:31.875Z,61.50
2022-09-07T11:58:14.125Z,61.40
2022-09-07T12:01:28.553Z,63.00
2022-09-07T12:05:15.136Z,62.90
2022-09-07T12:13:07.272Z,61.70
2022-09-07T12:16:01.684Z,62.30
2022-09-07T12:19:15.622Z,61.30
2022-09-07T12:22:23.035Z,62.30
2022-09-07T12:29:12.211Z,61.50
2022-09-07T12:31:59.818Z,62.20
2022-09-07T12:42:37.474Z,61.60
2022-09-07T12:45:49.385Z,59.00
2022-09-07T12:49:04.690Z,59.50
2022-09-07T13:04:00.277Z,59.80
2022-09-07T13:07:04.060Z,60.10
2022-09-07T13:14:33.976Z,57.70
2022-09-07T13:18:06.929Z,59.10
2022-09-07T13:24:57.944Z,59.70
2022-09-07T13:35:49.570Z,59.20
2022-09-07T13:43:12.550Z,58.00
2022-09-07T13:46:37.102Z,58.50
2022-09-07T14:02:39.176Z,59.30
2022-09-07T14:05:56.426Z,59.80
2022-09-07T14:08:28.876Z,59.50
2022-09-07T14:15:10.224Z,59.60
2022-09-07T14:18:09.214Z,60.30
2022-09-07T14:25:29.528Z,59.30
2022-09-07T14:28:00.237Z,59.40
2022-09-07T14:30:33.155Z,60.10
2022-09-07T14:33:06.247Z,57.80
2022-09-07T14:35:36.351Z,59.30
2022-09-07T14:38:15.481Z,58.30
2022-09-07T14:40:44.421Z,56.40
2022-09-07T14:43:29.304Z,58.10
2022-09-07T14:46:12.989Z,58.50
2022-09-07T14:48:45.359Z,58.20
2022-09-07T14:51:32.753Z,58.30
2022-09-07T14:54:08.041Z,61.00
2022-09-07T14:56:38.299Z,60.00
2022-09-07T14:59:28.182Z,58.80
2022-09-07T15:02:33.041Z,59.40
2022-09-07T15:05:25.484Z,58.10
2022-09-07T15:08:00.601Z,61.10
2022-09-07T15:10:37.197Z,60.00
2022-09-07T15:13:07.622Z,59.20
2022-09-07T15:15:37.692Z,57.50
2022-09-07T15:18:27.186Z,58.50
2022-09-07T15:20:57.076Z,59.00
2022-09-07T15:23:27.754Z,58.00
2022-09-07T15:25:56.243Z,59.50
2022-09-07T15:34:10.383Z,60.40
2022-09-07T15:36:41.447Z,61.10
2022-09-07T15:39:17.154Z,62.60
2022-09-07T15:41:46.007Z,63.30
2022-09-07T15:44:15.129Z,62.60
2022-09-07T15:47:42.070Z,63.60
2022-09-07T15:49:31.965Z,64.70
2022-09-07T15:52:05.537Z,64.90
2022-09-07T15:54:36.888Z,64.90
2022-09-07T15:59:56.249Z,65.80
2022-09-07T16:05:13.389Z,66.80
2022-09-07T16:10:31.902Z,68.30
2022-09-07T16:13:01.854Z,69.10
2022-09-07T16:15:31.347Z,69.60
2022-09-07T16:18:02.751Z,70.80
2022-09-07T16:20:32.485Z,71.30
2022-09-07T16:23:17.818Z,72.10
2022-09-07T16:25:57.951Z,73.50
2022-09-07T16:28:27.606Z,73.00
2022-09-07T16:30:56.565Z,74.20
2022-09-07T16:33:32.824Z,74.10
2022-09-07T16:36:07.446Z,72.30
2022-09-07T16:38:45.473Z,72.40
2022-09-07T16:41:16.156Z,71.30
2022-09-07T16:43:44.670Z,71.30
2022-09-07T16:46:15.246Z,73.20
2022-09-07T16:48:44.130Z,73.20
2022-09-07T16:51:14.941Z,73.70
2022-09-07T16:53:44.967Z,73.00
2022-09-07T16:56:16.978Z,74.10
2022-09-07T16:58:46.996Z,75.40
2022-09-07T17:01:18.107Z,73.50
2022-09-07T17:03:49.506Z,74.30
2022-09-07T17:06:20.372Z,75.70
2022-09-07T17:08:50.425Z,73.50
2022-09-07T17:11:20.749Z,73.60
2022-09-07T17:13:49.082Z,74.70
2022-09-07T17:16:19.814Z,74.20
2022-09-07T17:21:38.756Z,73.30
2022-09-07T17:24:09.969Z,74.80
2022-09-07T17:26:39.513Z,75.30
2022-09-07T17:29:13.186Z,74.80
2022-09-07T17:34:30.657Z,75.80
2022-09-07T17:37:00.634Z,76.60
2022-09-07T17:39:31.422Z,77.10
2022-09-07T17:42:00.114Z,77.80
2022-09-07T17:44:33.264Z,76.00
2022-09-07T17:47:04.225Z,77.70
2022-09-07T17:49:32.550Z,78.50
2022-09-07T17:52:01.719Z,78.00
2022-09-07T17:54:31.993Z,76.60
2022-09-07T17:57:00.371Z,77.20
2022-09-07T18:02:17.827Z,75.90
2022-09-07T18:04:46.355Z,76.30
2022-09-07T18:07:15.543Z,77.30
2022-09-07T18:09:45.576Z,79.40
2022-09-07T18:12:15.117Z,80.00
2022-09-07T18:14:43.755Z,78.70
2022-09-07T18:17:12.166Z,80.40
2022-09-07T18:19:40.586Z,79.70
2022-09-07T18:22:09.473Z,80.40
2022-09-07T18:24:37.822Z,80.30
2022-09-07T18:27:07.965Z,81.20
2022-09-07T18:29:37.601Z,81.60
2022-09-07T18:32:09.925Z,81.70
2022-09-07T18:34:41.449Z,81.40
2022-09-07T18:37:12.214Z,81.00
2022-09-07T18:39:41.036Z,81.00
2022-09-07T18:42:11.325Z,81.40
2022-09-07T18:47:29.329Z,81.30
2022-09-07T18:49:59.095Z,81.80
2022-09-07T18:55:16.891Z,82.20
2022-09-07T18:57:46.821Z,83.60
2022-09-07T19:00:17.971Z,83.00
2022-09-07T19:02:50.073Z,83.70
2022-09-07T19:08:08.598Z,84.60
2022-09-07T19:10:37.904Z,84.90
2022-09-07T19:13:07.774Z,85.60
2022-09-07T19:15:37.791Z,86.30
2022-09-07T19:18:09.084Z,86.70
2022-09-07T19:20:37.978Z,87.70
2022-09-07T19:23:06.590Z,87.40
2022-09-07T19:25:35.194Z,87.40
2022-09-07T19:28:04.771Z,87.40
2022-09-07T19:30:36.400Z,87.50
2022-09-07T19:33:08.044Z,87.70
2022-09-07T19:35:37.414Z,87.70
2022-09-07T19:38:05.938Z,87.50
2022-09-07T19:40:34.490Z,87.10
2022-09-07T19:43:02.877Z,87.10
2022-09-07T19:45:31.387Z,87.20
2022-09-07T19:48:01.092Z,87.60
2022-09-07T19:50:29.616Z,88.20
2022-09-07T19:52:58.567Z,88.60
2022-09-07T19:55:27.510Z,88.20
2022-09-07T19:57:57.044Z,89.90
2022-09-07T20:00:26.181Z,90.00
2022-09-07T20:02:55.245Z,89.80
2022-09-07T20:05:29.195Z,90.20
2022-09-07T20:07:57.541Z,90.40
2022-09-07T20:10:26.425Z,90.50
2022-09-07T20:12:54.775Z,90.30
2022-09-07T20:15:23.051Z,90.10
2022-09-07T20:17:51.416Z,90.30
2022-09-07T20:20:21.114Z,90.70
2022-09-07T20:22:50.887Z,90.90
2022-09-07T20:25:19.190Z,91.10
2022-09-07T20:27:47.489Z,91.10
2022-09-07T20:30:17.903Z,91.10
2022-09-07T20:32:46.611Z,90.90
2022-09-07T20:35:15.031Z,91.20
2022-09-07T20:37:43.564Z,91.60
2022-09-07T20:40:13.676Z,91.60
2022-09-07T20:42:42.131Z,91.80
2022-09-07T20:45:11.462Z,92.20
2022-09-07T20:47:39.843Z,92.20
2022-09-07T20:50:08.573Z,92.30
2022-09-07T20:52:36.831Z,92.20
2022-09-07T20:55:06.072Z,92.10
2022-09-07T20:57:37.971Z,91.20
2022-09-07T21:00:07.963Z,91.10
2022-09-07T21:02:36.457Z,91.10
2022-09-07T21:05:05.267Z,90.90
2022-09-07T21:07:33.555Z,90.80
2022-09-07T21:10:06.494Z,90.80
2022-09-07T21:12:37.148Z,91.00
2022-09-07T21:15:06.403Z,91.50
2022-09-07T21:17:34.797Z,91.50
2022-09-07T21:20:03.931Z,91.40
2022-09-07T21:22:32.943Z,91.40
2022-09-07T21:25:02.284Z,91.00
2022-09-07T21:27:38.121Z,90.80
2022-09-07T21:30:09.630Z,91.50
2022-09-07T21:32:38.355Z,91.60
2022-09-07T21:35:07.640Z,92.60
2022-09-07T21:37:35.961Z,92.60
2022-09-07T21:40:05.853Z,92.00
2022-09-07T21:42:34.230Z,92.60
2022-09-07T21:45:02.606Z,92.60
2022-09-07T21:47:32.234Z,91.90
2022-09-07T21:50:00.637Z,91.70
2022-09-07T21:52:28.806Z,91.30
2022-09-07T21:54:57.079Z,92.40
2022-09-07T21:57:25.391Z,92.50
2022-09-07T21:59:53.699Z,91.60
2022-09-07T22:02:21.996Z,91.70
2022-09-07T22:04:51.785Z,92.60
2022-09-07T22:07:20.090Z,92.90
2022-09-07T22:09:48.414Z,92.40
2022-09-07T22:12:16.716Z,92.10
2022-09-07T22:14:45.865Z,92.00
2022-09-07T22:17:14.233Z,92.20
2022-09-07T22:19:42.859Z,91.60
2022-09-07T22:22:12.761Z,91.90
2022-09-07T22:24:41.051Z,92.80
2022-09-07T22:27:09.453Z,92.80
2022-09-07T22:29:37.824Z,92.70
2022-09-07T22:32:06.251Z,92.80
2022-09-07T22:34:34.540Z,92.60
2022-09-07T22:37:02.795Z,92.80
2022-09-07T22:39:32.540Z,92.70
2022-09-07T22:42:00.832Z,92.40
2022-09-07T22:44:30.117Z,92.40
2022-09-07T22:46:58.395Z,92.30
2022-09-07T22:49:27.007Z,92.00
2022-09-07T22:51:55.272Z,91.50
2022-09-07T22:54:23.824Z,91.30
2022-09-07T22:56:53.504Z,91.40
2022-09-07T22:59:21.902Z,91.60
2022-09-07T23:01:50.244Z,92.10
2022-09-07T23:04:18.683Z,92.30
2022-09-07T23:06:47.101Z,92.40
2022-09-07T23:09:17.404Z,92.10
2022-09-07T23:11:46.679Z,91.70
2022-09-07T23:14:22.143Z,91.60
2022-09-07T23:16:50.784Z,91.60
2022-09-07T23:19:20.773Z,91.90
2022-09-07T23:21:49.330Z,92.20
2022-09-07T23:24:19.240Z,92.00
2022-09-07T23:26:47.804Z,91.90
2022-09-07T23:29:16.937Z,92.30
2022-09-07T23:31:48.171Z,92.70
2022-09-07T23:34:16.728Z,93.10
2022-09-07T23:36:45.125Z,92.70
2022-09-07T23:39:15.448Z,92.60
2022-09-07T23:41:43.906Z,93.00
2022-09-07T23:44:12.482Z,93.00
2022-09-07T23:46:40.819Z,92.80
2022-09-07T23:49:10.642Z,93.00
2022-09-07T23:51:38.887Z,93.40
2022-09-07T23:54:07.284Z,93.60
2022-09-07T23:56:37.988Z,93.90
2022-09-07T23:59:06.541Z,93.50
